Aérodrome :
LOGIN :

S'inscrire | Disclaimer

   EN    FR    IT 

 










Légende :    VFR   VFR Marginal   IFR   IFR Intensif   IFR Très Intensif
Visi : 
Plafond : 
>= 8 km
>= 3000ft
5 à 8 km
1000 à 3000 ft
1500m à 5 km
500 à 1000 ft
800 à 1500m
200 à 500 ft
< 800m
< 200 ft
Symboles :   Orages  Brouillard  Fortes neiges  Fortes précipitations  Vent > 20 kt
SIGMETs :   Divers  Orages  Givrage  Turbulence  Onde Orograph.  Cendres Volcan.







- Altitude de l'aérodrome : 10 ft
- Code IATA : AAL


EKYT - Aalborg

DERNIER METAR :
  • 241545Z 27020KT 3500 SHRA -SHGR BR SCT019CB BKN031 BKN050 05/03 Q1016

METARs EXPIRÉS :
  • 241540Z 27014G28KT 8000 SHRA -SHGR SCT020CB BKN035 BKN052 05/03 Q1016
  • 241520Z 26022KT 6000 -SHRA FEW027CB BKN066 BKN078 06/02 Q1017
  • 241450Z 26017G27KT 9999 -SHRA FEW021CB BKN074 07/03 Q1017
  • 241442Z 26018KT 9999 -SHRA FEW028CB SCT070 06/02 Q1017
  • 241420Z 25021KT CAVOK 07/02 Q1017
  • 241350Z 26019G29KT 230V290 9999 -SHRA SCT025CB SCT078 08/02 Q1018
  • 241335Z AUTO 27015G27KT 9999 -SHRA FEW026/// SCT060/// BKN075/// 08/04 Q1018
  • 241320Z AUTO 25022KT 9999 FEW060/// SCT080/// 08/02 Q1018

TAF AMD TAF EKYT
Valide du 24 à 15h jusqu'au 25 à 12h UTC


241555Z 2415/2512 25015KT 9999 SCT030
TEMPO 2415/2418 26018G28KT 4000 SHRAGS BKN012 SCT020CB
TEMPO 2418/2502 3000 SHRASN BKN008 SCT020CB
BECMG 2506/2508 36012KT
TEMPO 2508/2512 36015G27KT
Pas de NOTAMs connus pour ce terrain.



MET'MAP, la Météo Aéronautique d'un coup d'oeil ! - Copyright ORBIFLY Décembre 2007 - Disclaimer

ORBIFLY MET'MAP TEAM :

Programmation & Développement : Alexandra Zaïnal
Conception & Développement : Baudouin d'Aumeries
Co-Programmation & Développement : Marc-Olivier Méhu
Soutien technique & logistique : Manuel Goepfert

Contact : metmap@orbifly.com




SOURCES & CREDITS :

   NOAA